Data for 10/17/2007

Time Sea-Level Adjusted Pressure Absolute Pressure Temperature Relative Humidity Dew Point   
(mb) (inHg) (mb) (inHg) (C) (F) (%) (C) (F)
00:05 1004 29.65 833 24.6 6.3 43.3 90 4.7 40.5
00:10 1004 29.65 833 24.6 6.3 43.4 90 4.8 40.6
00:15 1004 29.65 833 24.6 6.3 43.4 89 4.7 40.4
00:20 1004 29.65 833 24.6 6.4 43.5 90 4.9 40.7
00:25 1004 29.65 833 24.6 6.4 43.6 88 4.6 40.3
00:30 1004 29.65 833 24.6 6.4 43.6 88 4.6 40.2
00:35 1004 29.65 833 24.6 6.4 43.6 88 4.6 40.2
00:40 1004 29.65 833 24.6 6.4 43.6 89 4.8 40.6
00:45 1004 29.65 833 24.6 6.4 43.6 89 4.7 40.5
00:50 1004 29.65 833 24.6 6.4 43.6 88 4.7 40.4
00:55 1004 29.65 833 24.6 6.4 43.6 89 4.8 40.6
01:00 1004 29.65 833 24.6 6 42.9 91 4.7 40.4
01:05 1004 29.65 833 24.6 5.7 42.2 94 4.7 40.5
01:10 1004 29.65 833 24.6 5.7 42.2 93 4.6 40.2
01:15 1004 29.65 833 24.6 5.6 42 93 4.5 40.2
01:20 1004 29.65 833 24.6 5.6 42.1 93 4.5 40.1
01:25 1004 29.65 833 24.6 5.7 42.3 92 4.5 40.2
01:30 1004 29.65 833 24.6 5.7 42.3 92 4.5 40
01:35 1004 29.65 833 24.6 5.7 42.2 92 4.5 40.1
01:40 1004 29.65 833 24.6 5.8 42.4 91 4.5 40
01:45 1004 29.65 833 24.6 5.7 42.3 92 4.5 40
01:50 1004 29.65 833 24.6 5.9 42.5 91 4.4 40
01:55 1004 29.65 833 24.6 6 42.8 89 4.4 40
02:00 1004 29.65 833 24.6 6 42.8 89 4.3 39.8
02:05 1004 29.65 833 24.6 5.9 42.7 90 4.5 40
02:10 1004 29.65 833 24.6 5.9 42.5 92 4.6 40.3
02:15 1004 29.65 833 24.6 5.6 42 93 4.5 40.1
02:20 1004 29.65 833 24.6 5.5 41.9 93 4.5 40.1
02:25 1004 29.65 833 24.6 5.5 41.9 93 4.5 40
02:30 1004 29.65 833 24.6 5.4 41.8 93 4.4 40
02:35 1004 29.65 833 24.6 5.4 41.7 93 4.4 40
02:40 1004 29.65 833 24.6 5.5 42 92 4.3 39.8
02:45 1004 29.65 833 24.6 5.6 42 93 4.5 40.1
02:50 1003 29.62 833 24.6 5.6 42 92 4.4 39.9
02:55 1003 29.62 833 24.6 5.4 41.8 93 4.4 40
03:00 1003 29.62 833 24.6 5.4 41.7 93 4.4 39.9
03:05 1003 29.62 832 24.57 5.2 41.4 95 4.4 39.9
03:10 1003 29.62 832 24.57 5 41.1 96 4.4 39.9
03:15 1003 29.62 832 24.57 4.9 40.9 96 4.3 39.8
03:20 1003 29.62 832 24.57 4.9 40.8 96 4.3 39.7
03:25 1003 29.62 832 24.57 5 41 95 4.2 39.5
03:30 1003 29.62 832 24.57 5.1 41.2 94 4.1 39.5
03:35 1003 29.62 832 24.57 5.1 41.3 93 4.2 39.5
03:40 1003 29.62 832 24.57 5.2 41.3 93 4.1 39.4
03:45 1003 29.62 832 24.57 5.2 41.4 93 4.1 39.5
03:50 1003 29.62 832 24.57 5.2 41.3 93 4.1 39.4
03:55 1003 29.62 832 24.57 5.1 41.2 93 4.1 39.4
04:00 1003 29.62 832 24.57 4.9 40.9 95 4.3 39.7
04:05 1003 29.62 832 24.57 4.8 40.7 96 4.2 39.5
04:10 1003 29.62 832 24.57 4.9 40.7 95 4.2 39.5
04:15 1003 29.62 832 24.57 4.9 40.8 95 4.2 39.5
04:20 1003 29.62 832 24.57 5 41 94 4.2 39.5
04:25 1003 29.62 832 24.57 5 41.1 94 4.2 39.6
04:30 1003 29.62 832 24.57 5.1 41.2 93 4.1 39.4
04:35 1003 29.62 832 24.57 5 41 94 4.2 39.5
04:40 1003 29.62 832 24.57 4.8 40.6 96 4.1 39.4
04:45 1003 29.62 832 24.57 4.6 40.3 96 4 39.2
04:50 1003 29.62 832 24.57 4.6 40.3 95 3.9 39.1
04:55 1003 29.62 832 24.57 4.7 40.5 95 4 39.2
05:00 1003 29.62 832 24.57 4.8 40.6 94 4 39.1
05:05 1003 29.62 832 24.57 4.9 40.7 94 4 39.2
05:10 1003 29.62 832 24.57 5 40.9 94 4 39.3
05:15 1003 29.62 832 24.57 4.9 40.8 94 4 39.1
05:20 1003 29.62 832 24.57 4.8 40.7 94 4 39.1
05:25 1003 29.62 832 24.57 4.8 40.6 94 4 39.1
05:30 1003 29.62 832 24.57 4.9 40.7 94 4 39.1
05:35 1003 29.62 832 24.57 4.9 40.9 94 4 39.1
05:40 1003 29.62 832 24.57 4.9 40.8 94 3.9 39.1
05:45 1003 29.62 832 24.57 4.7 40.5 94 3.8 38.9
05:50 1003 29.62 832 24.57 4.6 40.2 94 3.6 38.6
05:55 1003 29.62 832 24.57 4.5 40.1 94 3.7 38.6
06:00 1003 29.62 832 24.57 4.4 39.9 95 3.6 38.5
06:05 1003 29.62 832 24.57 4.4 39.9 95 3.7 38.6
06:10 1003 29.62 832 24.57 4.5 40.1 94 3.7 38.6
06:15 1003 29.62 832 24.57 4.6 40.3 94 3.8 38.8
06:20 1003 29.62 832 24.57 4.6 40.3 95 3.8 38.8
06:25 1003 29.62 832 24.57 4.6 40.3 95 3.9 39
06:30 1003 29.62 833 24.6 4.6 40.3 95 3.9 38.9
06:35 1003 29.62 833 24.6 4.5 40 95 3.8 38.8
06:40 1003 29.62 833 24.6 4.4 39.8 96 3.7 38.7
06:45 1003 29.62 833 24.6 4.4 40 96 3.8 38.9
06:50 1004 29.65 833 24.6 4.6 40.2 94 3.7 38.7
06:55 1004 29.65 833 24.6 4.7 40.4 94 3.8 38.8
07:00 1004 29.65 833 24.6 4.6 40.3 94 3.7 38.7
07:05 1004 29.65 833 24.6 4.6 40.3 94 3.7 38.7
07:10 1004 29.65 833 24.6 4.6 40.2 93 3.6 38.4
07:15 1004 29.65 833 24.6 4.6 40.2 94 3.6 38.5
07:20 1004 29.65 833 24.6 4.6 40.3 94 3.7 38.6
07:25 1004 29.65 833 24.6 4.5 40.2 94 3.6 38.5
07:30 1004 29.65 833 24.6 4.5 40.1 94 3.6 38.4
07:35 1004 29.65 833 24.6 4.5 40 94 3.5 38.3
07:40 1004 29.65 833 24.6 4.4 40 92 3.3 37.9
07:45 1004 29.65 833 24.6 4.4 39.9 90 2.9 37.2
07:50 1004 29.65 833 24.6 4.2 39.5 89 2.5 36.5
07:55 1004 29.65 833 24.6 4 39.1 91 2.6 36.6
08:00 1004 29.65 833 24.6 3.9 39.1 92 2.8 37.1
08:05 1004 29.65 833 24.6 4 39.1 93 2.9 37.1
08:10 1004 29.65 833 24.6 4 39.1 93 2.9 37.2
08:15 1004 29.65 833 24.6 3.9 39.1 93 2.8 37.1
08:20 1004 29.65 833 24.6 3.8 38.9 93 2.7 36.9
08:25 1004 29.65 833 24.6 3.8 38.8 91 2.5 36.5
08:30 1004 29.65 833 24.6 3.7 38.7 91 2.4 36.3
08:35 1004 29.65 833 24.6 3.6 38.5 89 2 35.6
08:40 1004 29.65 833 24.6 3.5 38.3 92 2.3 36.1
08:45 1004 29.65 833 24.6 3.3 38 93 2.3 36.1
08:50 1004 29.65 833 24.6 3.1 37.6 92 2 35.6
08:55 1004 29.65 833 24.6 3 37.4 93 2 35.6
09:00 1004 29.65 833 24.6 3 37.4 95 2.2 36
09:05 1004 29.65 833 24.6 3.1 37.6 95 2.3 36.2
09:10 1004 29.65 833 24.6 3.1 37.5 94 2.2 36
09:15 1004 29.65 833 24.6 3.1 37.5 95 2.4 36.2
09:20 1004 29.65 834 24.63 3.1 37.6 93 2.1 35.8
09:25 1004 29.65 834 24.63 2.9 37.3 94 2 35.6
09:30 1004 29.65 834 24.63 2.8 37.1 93 1.8 35.3
09:35 1004 29.65 834 24.63 2.8 37.1 93 1.9 35.3
09:40 1004 29.65 834 24.63 2.9 37.2 93 1.9 35.5
09:45 1004 29.65 834 24.63 3 37.5 93 2.1 35.7
09:50 1004 29.65 834 24.63 3.1 37.7 93 2.1 35.7
09:55 1004 29.65 834 24.63 3.2 37.7 92 2 35.6
10:00 1005 29.68 834 24.63 3.2 37.7 92 2.1 35.7
10:05 1005 29.68 834 24.63 3.3 37.9 92 2.1 35.7
10:10 1005 29.68 834 24.63 3.4 38.1 92 2.2 36
10:15 1005 29.68 834 24.63 3.4 38.2 92 2.3 36.1
10:20 1005 29.68 834 24.63 3.4 38.2 93 2.4 36.3
10:25 1005 29.68 834 24.63 3.5 38.4 93 2.6 36.6
10:30 1005 29.68 834 24.63 3.6 38.4 92 2.4 36.3
10:35 1005 29.68 834 24.63 3.4 38.2 92 2.3 36.1
10:40 1005 29.68 834 24.63 3.3 37.9 93 2.2 36
10:45 1005 29.68 834 24.63 3.3 38 93 2.2 36
10:50 1005 29.68 834 24.63 3.3 38 92 2.2 36
10:55 1005 29.68 834 24.63 3.4 38 93 2.4 36.2
11:00 1005 29.68 834 24.63 3.3 38 94 2.5 36.5
11:05 1005 29.68 834 24.63 3.4 38.1 94 2.5 36.5
11:10 1005 29.68 834 24.63 3.5 38.2 93 2.5 36.4
11:15 1005 29.68 834 24.63 3.6 38.4 93 2.5 36.5
11:20 1005 29.68 834 24.63 3.7 38.7 93 2.8 37
11:25 1005 29.68 834 24.63 3.9 39 91 2.5 36.5
11:30 1005 29.68 834 24.63 3.9 39 91 2.6 36.8
11:35 1005 29.68 834 24.63 4 39.2 90 2.5 36.5
11:40 1005 29.68 834 24.63 3.9 38.9 91 2.5 36.5
11:45 1005 29.68 834 24.63 3.7 38.6 91 2.3 36.2
11:50 1005 29.68 835 24.66 3.5 38.4 93 2.4 36.4
11:55 1005 29.68 835 24.66 3.5 38.3 92 2.2 36
12:00 1005 29.68 835 24.66 3.4 38.1 90 1.9 35.4
12:05 1006 29.71 835 24.66 3.4 38 91 2 35.6
12:10 1006 29.71 835 24.66 3.3 38 92 2.2 36
12:15 1006 29.71 835 24.66 3.5 38.2 92 2.3 36.2
12:20 1006 29.71 835 24.66 3.6 38.5 90 2.2 35.9
12:25 1006 29.71 835 24.66 3.6 38.5 91 2.3 36.1
12:30 1006 29.71 835 24.66 3.3 37.9 91 2 35.6
12:35 1006 29.71 835 24.66 2.7 36.8 93 1.7 35
12:40 1006 29.71 835 24.66 2.3 36.2 93 1.4 34.5
12:45 1006 29.71 835 24.66 2.5 36.4 94 1.6 34.8
12:50 1006 29.71 835 24.66 2.8 37 93 1.7 35
12:55 1006 29.71 835 24.66 3.1 37.7 91 1.8 35.2
13:00 1006 29.71 835 24.66 3.6 38.4 88 1.8 35.3
13:05 1006 29.71 835 24.66 3.7 38.6 87 1.7 35.1
13:10 1006 29.71 835 24.66 3.5 38.3 88 1.7 35.1
13:15 1006 29.71 835 24.66 3.4 38.2 86 1.3 34.4
13:20 1006 29.71 835 24.66 3.4 38.1 87 1.4 34.4
13:25 1006 29.71 835 24.66 3.4 38.1 86 1.2 34.2
13:30 1006 29.71 835 24.66 3.2 37.8 86 1.1 34
13:35 1006 29.71 835 24.66 3.3 38 85 1 33.8
13:40 1006 29.71 835 24.66 3.3 37.9 85 0.9 33.7
13:45 1006 29.71 835 24.66 3.5 38.2 83 0.9 33.6
13:50 1006 29.71 835 24.66 3.5 38.3 83 0.9 33.5
13:55 1006 29.71 835 24.66 3.5 38.2 82 0.6 33.1
14:00 1006 29.71 835 24.66 3.7 38.7 82 1 33.8
14:05 1006 29.71 835 24.66 3.7 38.7 83 1 33.9
14:10 1006 29.71 835 24.66 3.4 38 88 1.5 34.8
14:15 1006 29.71 835 24.66 3.2 37.7 88 1.4 34.6
14:20 1006 29.71 835 24.66 3.2 37.7 83 0.7 33.2
14:25 1006 29.71 835 24.66 3.4 38 85 1.1 34
14:30 1006 29.71 835 24.66 3.4 38.2 84 1 33.8
14:35 1006 29.71 835 24.66 3.6 38.6 86 1.6 34.8
14:40 1006 29.71 835 24.66 3.4 38.1 90 2 35.6
14:45 1006 29.71 835 24.66 3 37.4 92 1.8 35.3
14:50 1006 29.71 835 24.66 3 37.3 93 2 35.5
14:55 1006 29.71 835 24.66 2.8 37 95 2 35.6
15:00 1006 29.71 836 24.69 2.7 36.8 95 2 35.6
15:05 1007 29.74 836 24.69 2.2 36 95 1.5 34.7
15:10 1007 29.74 836 24.69 1.8 35.2 97 1.3 34.3
15:15 1007 29.74 836 24.69 1.8 35.3 96 1.3 34.3
15:20 1007 29.74 836 24.69 1.8 35.3 96 1.2 34.2
15:25 1007 29.74 836 24.69 1.9 35.4 95 1.1 34
15:30 1007 29.74 836 24.69 1.6 34.9 96 1.1 33.9
15:35 1007 29.74 836 24.69 1.5 34.7 96 1 33.8
15:40 1007 29.74 836 24.69 1.6 34.8 96 1.1 33.9
15:45 1007 29.74 836 24.69 1.7 35.1 96 1.2 34.2
15:50 1007 29.74 836 24.69 1.9 35.4 96 1.3 34.3
15:55 1007 29.74 836 24.69 2 35.6 96 1.4 34.5
16:00 1007 29.74 837 24.72 2.1 35.8 96 1.5 34.7
16:05 1007 29.74 837 24.72 2.4 36.3 94 1.5 34.8
16:10 1007 29.74 837 24.72 2.7 36.9 92 1.5 34.7
16:15 1007 29.74 837 24.72 2.9 37.2 90 1.4 34.6
16:20 1008 29.77 837 24.72 3.2 37.8 89 1.5 34.7
16:25 1008 29.77 837 24.72 3.8 38.8 86 1.6 34.9
16:30 1008 29.77 837 24.72 4.2 39.6 83 1.6 34.9
16:35 1008 29.77 837 24.72 4.5 40.1 84 2.1 35.8
16:40 1008 29.77 837 24.72 4.7 40.4 84 2.3 36.1
16:45 1008 29.77 837 24.72 4.9 40.8 85 2.7 36.8
16:50 1008 29.77 837 24.72 5.1 41.2 83 2.4 36.4
16:55 1008 29.77 837 24.72 5.2 41.4 85 2.8 37.1
17:00 1008 29.77 837 24.72 5.3 41.5 85 3 37.3
17:05 1008 29.77 837 24.72 5.3 41.5 80 2.1 35.8
17:10 1008 29.77 837 24.72 5.2 41.4 75 1.2 34.1
17:15 1008 29.77 837 24.72 5.2 41.3 75 1.1 34
17:20 1008 29.77 837 24.72 5.1 41.1 70 0.1 32.2
17:25 1008 29.77 838 24.75 4.9 40.9 72 0.3 32.5
17:30 1009 29.8 838 24.75 4.5 40.1 80 1.3 34.4
17:35 1009 29.8 838 24.75 4.1 39.4 84 1.6 34.9
17:40 1009 29.8 838 24.75 3.6 38.5 87 1.7 35
17:45 1009 29.8 838 24.75 3.3 37.9 87 1.3 34.4
17:50 1009 29.8 838 24.75 3.1 37.6 89 1.4 34.6
17:55 1009 29.8 838 24.75 3.1 37.6 87 1.1 34
18:00 1009 29.8 838 24.75 2.7 36.8 89 1.1 34
18:05 1009 29.8 838 24.75 2.5 36.5 90 1 33.9
18:10 1009 29.8 838 24.75 2.6 36.6 91 1.2 34.1
18:15 1009 29.8 838 24.75 2.8 37 89 1.1 34
18:20 1009 29.8 839 24.78 3 37.4 88 1.1 34
18:25 1009 29.8 839 24.78 3.2 37.8 87 1.2 34.1
18:30 1009 29.8 839 24.78 3.3 37.9 84 0.9 33.6
18:35 1010 29.83 839 24.78 3.3 38 85 1.1 34
18:40 1010 29.83 839 24.78 3.2 37.7 86 1.1 34
18:45 1010 29.83 839 24.78 3.1 37.5 87 1.2 34.1
18:50 1010 29.83 839 24.78 3 37.5 87 1.1 34
18:55 1010 29.83 839 24.78 3 37.4 88 1.2 34.2
19:00 1010 29.83 839 24.78 3.1 37.6 88 1.3 34.4
19:05 1010 29.83 839 24.78 3.1 37.6 88 1.3 34.3
19:10 1010 29.83 839 24.78 3.3 37.9 83 0.7 33.2
19:15 1010 29.83 839 24.78 3.6 38.4 77 -0.1 31.9
19:20 1010 29.83 839 24.78 3.8 38.8 77 0.1 32.1
19:25 1010 29.83 839 24.78 3.9 38.9 73 -0.6 30.9
19:30 1010 29.83 840 24.81 3.9 39 73 -0.5 31.1
19:35 1010 29.83 840 24.81 3.8 38.8 71 -1 30.2
19:40 1011 29.85 840 24.81 3.6 38.5 73 -0.8 30.5
19:45 1011 29.85 840 24.81 3.4 38.2 69 -1.8 28.8
19:50 1011 29.85 840 24.81 3.4 38.1 69 -1.7 29
19:55 1011 29.85 840 24.81 3.4 38.1 70 -1.6 29.1
20:00 1011 29.85 840 24.81 3.3 37.9 70 -1.8 28.8
20:05 1011 29.85 840 24.81 3.3 37.9 69 -1.9 28.5
20:10 1011 29.85 840 24.81 3.3 37.9 69 -1.8 28.8
20:15 1011 29.85 840 24.81 3.3 37.9 70 -1.8 28.8
20:20 1011 29.85 840 24.81 3.3 37.9 69 -1.8 28.7
20:25 1011 29.85 840 24.81 3.2 37.7 70 -1.8 28.8
20:30 1011 29.85 840 24.81 3.1 37.6 69 -2 28.4
20:35 1011 29.85 840 24.81 3 37.4 68 -2.4 27.7
20:40 1011 29.85 840 24.81 3 37.4 69 -2.1 28.2
20:45 1011 29.85 841 24.83 3 37.4 69 -2.2 28
20:50 1011 29.85 841 24.83 3 37.3 68 -2.3 27.8
20:55 1011 29.85 841 24.83 2.9 37.3 69 -2.2 28
21:00 1011 29.85 841 24.83 2.9 37.1 68 -2.4 27.7
21:05 1011 29.85 841 24.83 2.8 37.1 67 -2.7 27.2
21:10 1012 29.88 841 24.83 2.8 37 68 -2.6 27.3
21:15 1012 29.88 841 24.83 2.8 37 67 -2.7 27.1
21:20 1012 29.88 841 24.83 2.7 36.8 67 -2.8 27
21:25 1012 29.88 841 24.83 2.6 36.7 66 -3.1 26.4
21:30 1012 29.88 841 24.83 2.6 36.6 66 -3.1 26.5
21:35 1012 29.88 841 24.83 2.6 36.7 66 -3.1 26.4
21:40 1012 29.88 841 24.83 2.6 36.7 66 -3 26.5
21:45 1012 29.88 841 24.83 2.6 36.7 67 -2.9 26.8
21:50 1012 29.88 841 24.83 2.4 36.3 69 -2.8 27
21:55 1012 29.88 841 24.83 2.3 36.1 69 -2.7 27.1
22:00 1012 29.88 841 24.83 2.3 36.1 66 -3.4 25.8
22:05 1012 29.88 841 24.83 2.6 36.6 64 -3.5 25.7
22:10 1012 29.88 841 24.83 2.6 36.8 64 -3.6 25.5
22:15 1012 29.88 842 24.86 2.6 36.7 65 -3.4 25.9
22:20 1012 29.88 842 24.86 2.5 36.5 66 -3.2 26.3
22:25 1012 29.88 842 24.86 2.3 36.2 65 -3.6 25.5
22:30 1012 29.88 842 24.86 2.4 36.2 65 -3.6 25.6
22:35 1013 29.91 842 24.86 2.4 36.3 66 -3.4 25.8
22:40 1013 29.91 842 24.86 2.4 36.3 66 -3.4 25.9
22:45 1013 29.91 842 24.86 2.3 36.2 65 -3.5 25.7
22:50 1013 29.91 842 24.86 2.3 36.1 66 -3.4 25.9
22:55 1013 29.91 842 24.86 2.2 36 68 -3 26.6
23:00 1013 29.91 842 24.86 1.9 35.3 70 -3.1 26.4
23:05 1013 29.91 842 24.86 1.7 35.1 69 -3.4 25.8
23:10 1013 29.91 842 24.86 1.7 35 67 -3.7 25.3
23:15 1013 29.91 842 24.86 1.6 34.9 67 -4 24.9
23:20 1013 29.91 842 24.86 1.7 35 65 -4.2 24.5
23:25 1013 29.91 842 24.86 1.8 35.2 64 -4.4 24.1
23:30 1013 29.91 842 24.86 1.8 35.2 65 -4 24.7
23:35 1013 29.91 842 24.86 1.7 35 65 -4.1 24.6
23:40 1013 29.91 842 24.86 1.6 34.9 65 -4.2 24.4
23:45 1013 29.91 842 24.86 1.5 34.7 65 -4.3 24.2
23:50 1013 29.91 842 24.86 1.4 34.6 64 -4.6 23.8
23:55 1013 29.91 842 24.86 1.4 34.5 64 -4.7 23.5
24:00 1013 29.91 842 24.86 1.4 34.5 64 -4.8 23.4